createdAt,value
2023-05-06T00:00:42.871Z,99489.66
2023-05-06T00:03:15.138Z,99487.97
2023-05-06T00:05:42.643Z,99493.69
2023-05-06T00:08:09.907Z,99498.81
2023-05-06T00:10:36.716Z,99502.81
2023-05-06T00:13:04.469Z,99499.19
2023-05-06T00:15:32.303Z,99505.31
2023-05-06T00:18:00.205Z,99505.47
2023-05-06T00:20:27.586Z,99503.41
2023-05-06T00:22:55.370Z,99504.91
2023-05-06T00:25:24.597Z,99510.06
2023-05-06T00:27:52.774Z,99500.97
2023-05-06T00:30:19.693Z,99502.88
2023-05-06T00:32:49.331Z,99496.63
2023-05-06T00:35:16.253Z,99490.19
2023-05-06T00:37:46.895Z,99492.13
2023-05-06T00:40:14.412Z,99485.53
2023-05-06T00:42:46.524Z,99489.47
2023-05-06T00:45:13.485Z,99508.31
2023-05-06T00:47:41.713Z,99535.94
2023-05-06T00:50:09.033Z,99579.38
2023-05-06T00:52:38.839Z,99561.41
2023-05-06T00:55:08.951Z,99573.47
2023-05-06T00:57:36.430Z,99584.75
2023-05-06T01:00:04.187Z,99578.09
2023-05-06T01:02:45.824Z,99572.97
2023-05-06T01:05:28.185Z,99562.38
2023-05-06T01:08:03.835Z,99567.59
2023-05-06T01:10:31.342Z,99576.88
2023-05-06T01:13:28.024Z,99561.56
2023-05-06T01:15:55.896Z,99562.09
2023-05-06T01:18:25.644Z,99561.50
2023-05-06T01:20:53.689Z,99565.56
2023-05-06T01:23:20.845Z,99559.59
2023-05-06T01:25:47.702Z,99557.75
2023-05-06T01:28:16.374Z,99553.84
2023-05-06T01:30:43.479Z,99549.91
2023-05-06T01:33:22.778Z,99542.09
2023-05-06T01:36:22.270Z,99550.09
2023-05-06T01:39:01.006Z,99550.56
2023-05-06T01:41:28.038Z,99551.75
2023-05-06T01:43:55.345Z,99554.41
2023-05-06T01:46:22.696Z,99543.63
2023-05-06T01:48:54.036Z,99549.56
2023-05-06T01:51:23.039Z,99539.72
2023-05-06T01:53:50.479Z,99540.84
2023-05-06T01:56:17.421Z,99547.47
2023-05-06T01:58:44.609Z,99546.41
2023-05-06T02:01:14.472Z,99542.84
2023-05-06T02:03:41.730Z,99546.00
2023-05-06T02:06:09.020Z,99549.81
2023-05-06T02:08:41.389Z,99535.25
2023-05-06T02:11:14.480Z,99539.56
2023-05-06T02:13:42.699Z,99539.47
2023-05-06T02:16:12.193Z,99534.22
2023-05-06T02:18:42.225Z,99544.16
2023-05-06T02:21:10.033Z,99540.06
2023-05-06T02:23:37.435Z,99534.50
2023-05-06T02:26:04.505Z,99539.16
2023-05-06T02:28:33.476Z,99537.28
2023-05-06T02:31:05.942Z,99532.66
2023-05-06T02:33:33.153Z,99536.00
2023-05-06T02:36:00.061Z,99531.13
2023-05-06T02:38:27.368Z,99535.63
2023-05-06T02:40:54.208Z,99540.81
2023-05-06T02:43:23.178Z,99529.09
2023-05-06T02:45:50.378Z,99535.41
2023-05-06T02:48:20.441Z,99539.69
2023-05-06T02:50:47.655Z,99525.72
2023-05-06T02:53:14.886Z,99529.84
2023-05-06T02:55:41.703Z,99544.00
2023-05-06T02:58:08.974Z,99538.59
2023-05-06T03:00:36.525Z,99533.34
2023-05-06T03:03:03.967Z,99537.84
2023-05-06T03:05:30.833Z,99539.31
2023-05-06T03:07:58.108Z,99545.06
2023-05-06T03:10:25.095Z,99543.94
2023-05-06T03:12:58.530Z,99537.25
2023-05-06T03:15:26.155Z,99531.13
2023-05-06T03:17:54.268Z,99530.38
2023-05-06T03:20:21.794Z,99531.31
2023-05-06T03:22:52.826Z,99517.53
2023-05-06T03:25:21.610Z,99526.28
2023-05-06T03:27:51.521Z,99526.66
2023-05-06T03:30:21.539Z,99524.63
2023-05-06T03:32:51.292Z,99524.06
2023-05-06T03:35:25.778Z,99523.31
2023-05-06T03:37:56.827Z,99530.78
2023-05-06T03:40:26.853Z,99517.91
2023-05-06T03:42:54.817Z,99521.78
2023-05-06T03:45:22.954Z,99531.69
2023-05-06T03:47:50.845Z,99527.75
2023-05-06T03:50:20.070Z,99522.53
2023-05-06T03:52:47.482Z,99529.97
2023-05-06T03:55:14.600Z,99528.13
2023-05-06T03:57:44.532Z,99532.06
2023-05-06T04:00:14.545Z,99529.78
2023-05-06T04:02:46.023Z,99535.56
2023-05-06T04:05:23.263Z,99538.38
2023-05-06T04:07:50.461Z,99539.88
2023-05-06T04:10:17.398Z,99551.56
2023-05-06T04:12:48.998Z,99555.06
2023-05-06T04:15:21.615Z,99549.47
2023-05-06T04:17:49.263Z,99559.31
2023-05-06T04:20:16.343Z,99551.13
2023-05-06T04:22:43.697Z,99552.81
2023-05-06T04:25:12.240Z,99562.28
2023-05-06T04:27:40.588Z,99564.91
2023-05-06T04:30:08.971Z,99565.09
2023-05-06T04:32:38.631Z,99566.78
2023-05-06T04:35:06.531Z,99566.94
2023-05-06T04:37:34.725Z,99570.31
2023-05-06T04:40:09.351Z,99572.19
2023-05-06T04:42:39.584Z,99567.31
2023-05-06T04:45:12.347Z,99569.56
2023-05-06T04:47:45.178Z,99572.91
2023-05-06T04:50:13.013Z,99583.16
2023-05-06T04:52:41.446Z,99584.28
2023-05-06T04:55:08.864Z,99585.41
2023-05-06T04:57:38.000Z,99583.94
2023-05-06T05:00:05.336Z,99590.09
2023-05-06T05:02:32.593Z,99595.31
2023-05-06T05:05:00.051Z,99589.94
2023-05-06T05:07:28.270Z,99602.25
2023-05-06T05:09:55.243Z,99596.84
2023-05-06T05:12:22.733Z,99598.50
2023-05-06T05:14:51.596Z,99602.06
2023-05-06T05:17:18.991Z,99595.34
2023-05-06T05:19:49.120Z,99589.94
2023-05-06T05:22:17.317Z,99605.78
2023-05-06T05:24:44.758Z,99592.91
2023-05-06T05:27:12.179Z,99594.56
2023-05-06T05:29:40.157Z,99598.50
2023-05-06T05:32:08.825Z,99599.97
2023-05-06T05:34:36.283Z,99593.66
2023-05-06T05:37:04.279Z,99588.44
2023-05-06T05:39:32.757Z,99598.50
2023-05-06T05:42:00.497Z,99593.56
2023-05-06T05:44:33.442Z,99598.91
2023-05-06T05:47:02.056Z,99599.03
2023-05-06T05:49:29.827Z,99605.00
2023-05-06T05:51:57.489Z,99594.50
2023-05-06T05:54:25.608Z,99602.63
2023-05-06T05:56:53.036Z,99606.91
2023-05-06T05:59:25.513Z,99611.38
2023-05-06T06:01:58.094Z,99620.13
2023-05-06T06:04:25.685Z,99614.59
2023-05-06T06:06:52.966Z,99620.47
2023-05-06T06:09:23.138Z,99607.03
2023-05-06T06:11:51.498Z,99611.16
2023-05-06T06:14:24.421Z,99602.00
2023-05-06T06:16:51.602Z,99610.31
2023-05-06T06:19:18.448Z,99612.22
2023-05-06T06:21:49.031Z,99604.66
2023-05-06T06:24:17.694Z,99611.06
2023-05-06T06:26:44.997Z,99617.06
2023-05-06T06:29:12.389Z,99622.88
2023-05-06T06:31:40.685Z,99608.06
2023-05-06T06:34:09.122Z,99620.97
2023-05-06T06:36:36.385Z,99623.00
2023-05-06T06:39:03.554Z,99632.25
2023-05-06T06:41:30.804Z,99634.09
2023-05-06T06:43:57.732Z,99643.63
2023-05-06T06:46:31.360Z,99646.66
2023-05-06T06:48:58.235Z,99643.59
2023-05-06T06:51:28.357Z,99650.00
2023-05-06T06:53:55.279Z,99649.63
2023-05-06T06:56:23.170Z,99658.72
2023-05-06T06:58:52.375Z,99654.53
2023-05-06T07:01:20.542Z,99648.56
2023-05-06T07:03:49.857Z,99656.03
2023-05-06T07:06:17.129Z,99651.22
2023-05-06T07:08:47.156Z,99646.78
2023-05-06T07:11:14.517Z,99646.34
2023-05-06T07:13:41.372Z,99645.91
2023-05-06T07:16:08.898Z,99658.22
2023-05-06T07:18:35.808Z,99649.50
2023-05-06T07:21:03.023Z,99651.97
2023-05-06T07:23:31.931Z,99654.72
2023-05-06T07:25:59.996Z,99655.03
2023-05-06T07:28:27.166Z,99654.88
2023-05-06T07:30:54.387Z,99653.59
2023-05-06T07:33:23.925Z,99649.28
2023-05-06T07:35:52.799Z,99656.91
2023-05-06T07:38:23.016Z,99661.22
2023-05-06T07:40:51.510Z,99654.16
2023-05-06T07:43:18.372Z,99649.50
2023-05-06T07:45:45.937Z,99657.34
2023-05-06T07:48:13.228Z,99648.41
2023-05-06T07:50:40.638Z,99656.13
2023-05-06T07:53:07.591Z,99659.50
2023-05-06T07:55:37.651Z,99661.38
2023-05-06T07:58:06.909Z,99657.94
2023-05-06T08:00:34.238Z,99651.06
2023-05-06T08:03:01.267Z,99647.78
2023-05-06T08:05:28.634Z,99649.72
2023-05-06T08:07:57.953Z,99656.13
2023-05-06T08:10:27.475Z,99653.44
2023-05-06T08:12:54.493Z,99648.31
2023-05-06T08:15:21.651Z,99648.09
2023-05-06T08:17:51.641Z,99656.72
2023-05-06T08:20:19.012Z,99654.66
2023-05-06T08:22:45.961Z,99668.22
2023-05-06T08:25:13.460Z,99653.72
2023-05-06T08:27:40.809Z,99650.78
2023-05-06T08:30:08.336Z,99648.75
2023-05-06T08:32:37.622Z,99648.69
2023-05-06T08:35:06.026Z,99644.56
2023-05-06T08:37:33.285Z,99647.97
2023-05-06T08:40:05.022Z,99650.91
2023-05-06T08:42:32.929Z,99645.25
2023-05-06T08:45:00.251Z,99649.44
2023-05-06T08:47:27.527Z,99652.06
2023-05-06T08:49:57.209Z,99657.34
2023-05-06T08:52:24.830Z,99661.56
2023-05-06T08:54:55.088Z,99660.81
2023-05-06T08:57:22.343Z,99659.41
2023-05-06T08:59:49.624Z,99666.16
2023-05-06T09:02:16.614Z,99655.16
2023-05-06T09:04:44.613Z,99663.47
2023-05-06T09:07:11.664Z,99654.88
2023-05-06T09:09:38.834Z,99658.81
2023-05-06T09:12:09.898Z,99668.91
2023-05-06T09:14:37.042Z,99661.69
2023-05-06T09:17:03.927Z,99666.88
2023-05-06T09:19:31.448Z,99664.06
2023-05-06T09:21:58.650Z,99675.22
2023-05-06T09:24:26.352Z,99667.56
2023-05-06T09:26:56.995Z,99664.91
2023-05-06T09:29:24.151Z,99680.34
2023-05-06T09:31:54.040Z,99679.53
2023-05-06T09:34:22.785Z,99674.16
2023-05-06T09:36:49.665Z,99674.03
2023-05-06T09:39:19.178Z,99666.53
2023-05-06T09:41:46.102Z,99662.06
2023-05-06T09:44:13.946Z,99654.31
2023-05-06T09:46:42.070Z,99658.16
2023-05-06T09:49:10.278Z,99652.06
2023-05-06T09:51:43.394Z,99649.75
2023-05-06T09:54:10.948Z,99654.09
2023-05-06T09:56:38.045Z,99655.09
2023-05-06T09:59:11.417Z,99646.31
2023-05-06T10:01:39.201Z,99646.19
2023-05-06T10:04:09.519Z,99643.50
2023-05-06T10:06:39.845Z,99643.72
2023-05-06T10:09:07.704Z,99644.19
2023-05-06T10:11:35.517Z,99642.81
2023-05-06T10:14:02.892Z,99639.75
2023-05-06T10:16:34.792Z,99642.34
2023-05-06T10:19:03.949Z,99635.59
2023-05-06T10:21:36.090Z,99636.88
2023-05-06T10:24:09.275Z,99634.22
2023-05-06T10:26:36.849Z,99637.03
2023-05-06T10:29:08.179Z,99630.03
2023-05-06T10:31:39.705Z,99621.09
2023-05-06T10:34:09.411Z,99613.47
2023-05-06T10:36:36.744Z,99616.00
2023-05-06T10:39:04.724Z,99614.34
2023-05-06T10:41:37.163Z,99624.34
2023-05-06T10:44:04.900Z,99613.47
2023-05-06T10:46:32.692Z,99599.75
2023-05-06T10:49:11.507Z,99609.41
2023-05-06T10:51:43.183Z,99604.78
2023-05-06T10:54:13.170Z,99598.97
2023-05-06T10:57:02.716Z,99613.56
2023-05-06T10:59:31.060Z,99608.47
2023-05-06T11:02:04.691Z,99605.97
2023-05-06T11:04:32.491Z,99610.06
2023-05-06T11:07:12.192Z,99597.38
2023-05-06T11:10:14.209Z,99595.22
2023-05-06T11:12:45.371Z,99596.88
2023-05-06T11:15:25.388Z,99599.09
2023-05-06T11:17:56.325Z,99585.38
2023-05-06T11:20:25.365Z,99593.75
2023-05-06T11:22:53.156Z,99588.47
2023-05-06T11:25:38.983Z,99589.16
2023-05-06T11:28:10.016Z,99587.69
2023-05-06T11:30:41.205Z,99590.44
2023-05-06T11:33:08.852Z,99589.06
2023-05-06T11:35:39.613Z,99591.41
2023-05-06T11:38:06.668Z,99587.59
2023-05-06T11:40:33.788Z,99593.72
2023-05-06T11:43:11.126Z,99602.34
2023-05-06T11:45:47.673Z,99593.66
2023-05-06T11:48:15.545Z,99594.81
2023-05-06T11:50:47.386Z,99603.84
2023-05-06T11:53:16.665Z,99606.31
2023-05-06T11:55:44.503Z,99604.16
2023-05-06T11:58:17.841Z,99613.84
2023-05-06T12:00:55.881Z,99607.63
2023-05-06T12:03:26.363Z,99611.81
2023-05-06T12:05:53.887Z,99610.22
2023-05-06T12:08:29.602Z,99617.47
2023-05-06T12:11:01.820Z,99606.41
2023-05-06T12:13:29.032Z,99613.03
2023-05-06T12:15:58.644Z,99612.34
2023-05-06T12:18:25.800Z,99618.81
2023-05-06T12:20:56.664Z,99617.16
2023-05-06T12:23:23.758Z,99631.53
2023-05-06T12:26:01.323Z,99626.91
2023-05-06T12:28:28.333Z,99624.63
2023-05-06T12:30:55.672Z,99620.16
2023-05-06T12:33:23.028Z,99616.09
2023-05-06T12:35:54.811Z,99605.97
2023-05-06T12:38:21.808Z,99595.44
2023-05-06T12:40:55.480Z,99575.75
2023-05-06T12:43:31.532Z,99577.88
2023-05-06T12:46:08.999Z,99568.38
2023-05-06T12:48:38.961Z,99576.06
2023-05-06T12:51:19.596Z,99575.84
2023-05-06T12:53:46.800Z,99578.34
2023-05-06T12:56:13.990Z,99580.22
2023-05-06T12:58:41.150Z,99575.34
2023-05-06T13:01:08.449Z,99565.78
2023-05-06T13:03:40.928Z,99565.34
2023-05-06T13:06:10.728Z,99571.13
2023-05-06T13:08:38.044Z,99566.22
2023-05-06T13:11:05.351Z,99570.72
2023-05-06T13:13:32.305Z,99577.91
2023-05-06T13:16:01.873Z,99575.13
2023-05-06T13:18:31.808Z,99573.06
2023-05-06T13:21:00.307Z,99566.41
2023-05-06T13:23:27.577Z,99562.84
2023-05-06T13:26:04.087Z,99553.75
2023-05-06T13:28:33.246Z,99552.53
2023-05-06T13:31:00.989Z,99541.97
2023-05-06T13:33:28.346Z,99537.94
2023-05-06T13:35:56.182Z,99540.13
2023-05-06T13:38:23.429Z,99549.81
2023-05-06T13:40:51.664Z,99539.28
2023-05-06T13:43:19.027Z,99540.88
2023-05-06T13:45:46.311Z,99547.78
2023-05-06T13:48:13.411Z,99552.72
2023-05-06T13:50:45.944Z,99557.16
2023-05-06T13:53:13.210Z,99575.69
2023-05-06T13:55:41.496Z,99597.47
2023-05-06T13:58:08.638Z,99610.03
2023-05-06T14:00:38.694Z,99630.94
2023-05-06T14:03:06.224Z,99666.09
2023-05-06T14:05:33.570Z,99664.16
2023-05-06T14:08:03.317Z,99642.34
2023-05-06T14:10:30.502Z,99613.53
2023-05-06T14:12:57.404Z,99576.34
2023-05-06T14:15:25.015Z,99566.91
2023-05-06T14:17:52.116Z,99568.75
2023-05-06T14:20:19.565Z,99558.84
2023-05-06T14:22:46.380Z,99561.91
2023-05-06T14:25:16.048Z,99545.69
2023-05-06T14:27:43.050Z,99550.72
2023-05-06T14:30:10.500Z,99545.13
2023-05-06T14:32:37.700Z,99553.31
2023-05-06T14:35:08.353Z,99566.53
2023-05-06T14:37:38.041Z,99568.84
2023-05-06T14:40:06.081Z,99571.84
2023-05-06T14:42:33.062Z,99568.84
2023-05-06T14:45:00.250Z,99559.50
2023-05-06T14:47:29.749Z,99571.81
2023-05-06T14:49:59.353Z,99569.22
2023-05-06T14:52:26.356Z,99563.41
2023-05-06T14:54:53.529Z,99572.91
2023-05-06T14:57:20.653Z,99579.44
2023-05-06T14:59:47.856Z,99577.34
2023-05-06T15:02:14.948Z,99582.75
2023-05-06T15:04:42.309Z,99582.44
2023-05-06T15:07:09.211Z,99579.13
2023-05-06T15:09:39.590Z,99580.19
2023-05-06T15:12:06.813Z,99577.81
2023-05-06T15:14:34.060Z,99575.41
2023-05-06T15:17:01.068Z,99573.19
2023-05-06T15:19:28.388Z,99581.44
2023-05-06T15:21:55.209Z,99583.00
2023-05-06T15:24:23.152Z,99585.22
2023-05-06T15:26:52.635Z,99582.25
2023-05-06T15:29:20.065Z,99581.94
2023-05-06T15:31:47.647Z,99575.47
2023-05-06T15:34:14.895Z,99576.88
2023-05-06T15:36:42.397Z,99570.53
2023-05-06T15:39:09.705Z,99561.72
2023-05-06T15:41:38.004Z,99557.44
2023-05-06T15:44:06.279Z,99560.97
2023-05-06T15:46:33.761Z,99559.59
2023-05-06T15:51:31.325Z,99562.06
2023-05-06T15:53:58.536Z,99564.13
2023-05-06T15:56:27.079Z,99561.56
2023-05-06T15:58:56.986Z,99562.88
2023-05-06T16:01:47.951Z,99572.94
2023-05-06T16:04:11.442Z,99569.97
2023-05-06T16:06:38.557Z,99574.25
2023-05-06T16:09:05.827Z,99574.75
2023-05-06T16:11:32.949Z,99578.31
2023-05-06T16:14:00.191Z,99577.06
2023-05-06T16:16:27.150Z,99576.81
2023-05-06T16:18:54.451Z,99571.22
2023-05-06T16:21:21.447Z,99566.53
2023-05-06T16:23:48.798Z,99567.34
2023-05-06T16:26:17.934Z,99561.22
2023-05-06T16:28:45.230Z,99552.66
2023-05-06T16:31:12.161Z,99558.09
2023-05-06T16:33:39.373Z,99557.94
2023-05-06T16:36:07.684Z,99556.13
2023-05-06T16:38:35.038Z,99558.59
2023-05-06T16:41:02.075Z,99561.19
2023-05-06T16:43:29.237Z,99559.84
2023-05-06T16:45:56.395Z,99558.38
2023-05-06T16:48:25.961Z,99562.50
2023-05-06T16:50:52.793Z,99559.84
2023-05-06T16:53:20.464Z,99565.47
2023-05-06T16:55:50.017Z,99561.38
2023-05-06T16:58:17.345Z,99548.66
2023-05-06T17:00:44.354Z,99547.19
2023-05-06T17:03:11.801Z,99551.72
2023-05-06T17:05:41.506Z,99556.06
2023-05-06T17:08:10.680Z,99554.81
2023-05-06T17:10:39.963Z,99558.41
2023-05-06T17:13:07.517Z,99552.31
2023-05-06T17:15:36.942Z,99556.81
2023-05-06T17:18:06.318Z,99564.72
2023-05-06T17:20:40.680Z,99555.22
2023-05-06T17:23:15.152Z,99565.53
2023-05-06T17:25:42.035Z,99557.53
2023-05-06T17:28:13.902Z,99562.94
2023-05-06T17:30:41.123Z,99555.69
2023-05-06T17:33:08.523Z,99558.31
2023-05-06T17:35:35.370Z,99559.03
2023-05-06T17:38:02.680Z,99565.97
2023-05-06T17:40:29.526Z,99570.63
2023-05-06T17:42:56.742Z,99560.41
2023-05-06T17:45:25.362Z,99561.97
2023-05-06T17:47:52.574Z,99560.88
2023-05-06T17:50:19.481Z,99560.91
2023-05-06T17:52:48.944Z,99556.09
2023-05-06T17:55:17.512Z,99559.47
2023-05-06T17:57:45.014Z,99558.44
2023-05-06T18:00:12.259Z,99566.69
2023-05-06T18:02:41.996Z,99572.13
2023-05-06T18:05:09.810Z,99573.28
2023-05-06T18:07:37.433Z,99569.78
2023-05-06T18:10:05.069Z,99573.91
2023-05-06T18:12:32.317Z,99578.75
2023-05-06T18:15:00.312Z,99576.91
2023-05-06T18:17:27.773Z,99586.41
2023-05-06T18:19:57.169Z,99587.94
2023-05-06T18:22:24.551Z,99592.56
2023-05-06T18:25:07.233Z,99588.13
2023-05-06T18:27:34.492Z,99591.47
2023-05-06T18:30:01.471Z,99585.69
2023-05-06T18:32:28.947Z,99586.25
2023-05-06T18:34:55.930Z,99591.44
2023-05-06T18:37:23.441Z,99587.91
2023-05-06T18:39:52.759Z,99586.97
2023-05-06T18:42:21.335Z,99589.56
2023-05-06T18:44:50.600Z,99596.59
2023-05-06T18:47:18.438Z,99597.16
2023-05-06T18:49:45.698Z,99597.69
2023-05-06T18:52:16.711Z,99601.00
2023-05-06T18:54:46.328Z,99603.53
2023-05-06T18:57:15.953Z,99606.53
2023-05-06T18:59:43.050Z,99611.47
2023-05-06T19:02:10.782Z,99618.84
2023-05-06T19:04:38.297Z,99623.09
2023-05-06T19:07:05.689Z,99621.94
2023-05-06T19:09:36.957Z,99625.28
2023-05-06T19:12:04.426Z,99627.13
2023-05-06T19:14:32.572Z,99637.00
2023-05-06T19:16:59.891Z,99629.91
2023-05-06T19:19:29.374Z,99635.34
2023-05-06T19:21:59.881Z,99634.06
2023-05-06T19:24:26.827Z,99642.88
2023-05-06T19:26:54.009Z,99645.56
2023-05-06T19:29:21.020Z,99643.81
2023-05-06T19:31:48.367Z,99646.03
2023-05-06T19:34:15.816Z,99643.69
2023-05-06T19:36:45.630Z,99638.88
2023-05-06T19:39:12.425Z,99640.13
2023-05-06T19:41:42.562Z,99638.31
2023-05-06T19:44:09.431Z,99643.13
2023-05-06T19:46:36.701Z,99651.13
2023-05-06T19:49:03.708Z,99642.06
2023-05-06T19:51:31.298Z,99642.22
2023-05-06T19:53:58.243Z,99642.22
2023-05-06T19:56:25.785Z,99641.13
2023-05-06T19:58:52.644Z,99640.19
2023-05-06T20:01:22.932Z,99636.28
2023-05-06T20:03:50.127Z,99641.66
2023-05-06T20:06:17.378Z,99635.13
2023-05-06T20:08:44.330Z,99626.19
2023-05-06T20:11:11.848Z,99634.91
2023-05-06T20:13:39.280Z,99634.16
2023-05-06T20:16:06.871Z,99631.72
2023-05-06T20:18:33.803Z,99627.44
2023-05-06T20:21:01.073Z,99626.72
2023-05-06T20:23:28.128Z,99629.84
2023-05-06T20:25:55.788Z,99624.09
2023-05-06T20:28:22.609Z,99616.47
2023-05-06T20:30:51.235Z,99623.31
2023-05-06T20:33:18.175Z,99628.50
2023-05-06T20:35:45.836Z,99626.41
2023-05-06T20:38:12.926Z,99622.31
2023-05-06T20:40:40.130Z,99629.13
2023-05-06T20:43:06.997Z,99626.34
2023-05-06T20:45:34.256Z,99627.78
2023-05-06T20:48:01.334Z,99627.75
2023-05-06T20:50:30.037Z,99627.19
2023-05-06T20:52:57.127Z,99628.44
2023-05-06T20:55:25.744Z,99627.69
2023-05-06T20:57:53.074Z,99631.91
2023-05-06T21:00:22.786Z,99637.22
2023-05-06T21:02:49.774Z,99643.28
2023-05-06T21:05:17.167Z,99638.19
2023-05-06T21:07:44.008Z,99640.38
2023-05-06T21:10:11.372Z,99636.97
2023-05-06T21:12:38.415Z,99646.75
2023-05-06T21:15:05.889Z,99634.44
2023-05-06T21:17:32.786Z,99646.13
2023-05-06T21:20:00.058Z,99639.09
2023-05-06T21:22:26.984Z,99639.72
2023-05-06T21:24:55.438Z,99636.94
2023-05-06T21:27:22.349Z,99631.09
2023-05-06T21:29:49.476Z,99639.56
2023-05-06T21:32:16.422Z,99634.66
2023-05-06T21:34:43.878Z,99629.03
2023-05-06T21:37:11.651Z,99634.72
2023-05-06T21:39:38.911Z,99634.50
2023-05-06T21:42:05.772Z,99633.69
2023-05-06T21:44:35.276Z,99640.13
2023-05-06T21:47:02.126Z,99640.97
2023-05-06T21:49:29.617Z,99644.59
2023-05-06T21:51:58.879Z,99644.59
2023-05-06T21:54:26.489Z,99642.91
2023-05-06T21:56:54.238Z,99643.25
2023-05-06T21:59:21.672Z,99648.91
2023-05-06T22:01:48.592Z,99645.19
2023-05-06T22:04:16.805Z,99641.66
2023-05-06T22:06:44.211Z,99649.56
2023-05-06T22:09:13.804Z,99652.66
2023-05-06T22:11:40.967Z,99653.19
2023-05-06T22:14:08.235Z,99642.94
2023-05-06T22:16:35.789Z,99641.44
2023-05-06T22:19:04.046Z,99646.78
2023-05-06T22:21:32.084Z,99633.63
2023-05-06T22:23:59.697Z,99640.81
2023-05-06T22:26:28.345Z,99642.41
2023-05-06T22:28:56.005Z,99651.28
2023-05-06T22:31:25.488Z,99654.50
2023-05-06T22:33:57.622Z,99646.66
2023-05-06T22:36:27.906Z,99648.03
2023-05-06T22:38:55.458Z,99647.00
2023-05-06T22:41:22.371Z,99645.06
2023-05-06T22:43:49.746Z,99649.56
2023-05-06T22:46:16.809Z,99652.22
2023-05-06T22:48:47.962Z,99649.44
2023-05-06T22:51:18.678Z,99647.59
2023-05-06T22:53:46.023Z,99641.81
2023-05-06T22:56:12.875Z,99643.88
2023-05-06T22:58:40.033Z,99640.88
2023-05-06T23:01:50.556Z,99631.69
2023-05-06T23:04:43.764Z,99625.47
2023-05-06T23:07:13.987Z,99621.81
2023-05-06T23:09:43.564Z,99622.97
2023-05-06T23:12:10.702Z,99621.34
2023-05-06T23:14:40.114Z,99619.72
2023-05-06T23:17:07.384Z,99623.81
2023-05-06T23:19:34.561Z,99622.50
2023-05-06T23:22:01.482Z,99631.06
2023-05-06T23:24:28.680Z,99634.59
2023-05-06T23:26:55.688Z,99628.16
2023-05-06T23:29:22.842Z,99631.88
2023-05-06T23:31:52.304Z,99628.75
2023-05-06T23:34:19.566Z,99631.63
2023-05-06T23:36:46.563Z,99630.22
2023-05-06T23:39:13.767Z,99627.28
2023-05-06T23:41:40.778Z,99637.16
2023-05-06T23:44:08.147Z,99630.53
2023-05-06T23:46:35.056Z,99623.44
2023-05-06T23:49:01.961Z,99621.94
2023-05-06T23:51:31.958Z,99627.06
2023-05-06T23:53:59.010Z,99623.41
2023-05-06T23:56:26.507Z,99621.91
2023-05-06T23:58:53.422Z,99621.91
